createdAt,value
2022-12-24T00:00:47.144Z,11.52
2022-12-24T00:04:12.376Z,11.51
2022-12-24T00:07:37.612Z,11.52
2022-12-24T00:11:02.877Z,11.52
2022-12-24T00:14:28.109Z,11.51
2022-12-24T00:17:53.351Z,11.51
2022-12-24T00:21:18.592Z,11.49
2022-12-24T00:24:43.918Z,11.48
2022-12-24T00:28:09.199Z,11.44
2022-12-24T00:31:34.488Z,11.42
2022-12-24T00:34:59.665Z,11.41
2022-12-24T00:38:24.905Z,11.41
2022-12-24T00:41:50.152Z,11.38
2022-12-24T00:45:15.417Z,11.36
2022-12-24T00:48:40.639Z,11.32
2022-12-24T00:52:05.889Z,11.28
2022-12-24T00:55:31.127Z,11.27
2022-12-24T00:58:56.382Z,11.22
2022-12-24T01:02:22.031Z,11.18
2022-12-24T01:05:46.852Z,11.16
2022-12-24T01:09:12.121Z,11.15
2022-12-24T01:12:37.387Z,11.11
2022-12-24T01:16:02.717Z,11.09
2022-12-24T01:19:27.878Z,11.12
2022-12-24T01:22:53.109Z,11.13
2022-12-24T01:26:18.343Z,11.11
2022-12-24T01:29:43.605Z,11.11
2022-12-24T01:33:08.863Z,11.09
2022-12-24T01:36:34.141Z,11.07
2022-12-24T01:39:59.356Z,11.08
2022-12-24T01:43:24.599Z,11.07
2022-12-24T01:46:49.905Z,11.06
2022-12-24T01:50:15.076Z,11.03
2022-12-24T01:53:40.327Z,11.02
2022-12-24T01:57:05.553Z,11.03
2022-12-24T02:00:30.820Z,11.01
2022-12-24T02:03:56.167Z,10.98
2022-12-24T02:07:21.333Z,10.96
2022-12-24T02:10:46.582Z,10.96
2022-12-24T02:14:11.802Z,10.95
2022-12-24T02:17:37.041Z,10.93
2022-12-24T02:21:02.272Z,10.9
2022-12-24T02:24:27.525Z,10.87
2022-12-24T02:27:52.784Z,10.87
2022-12-24T02:31:18.079Z,10.88
2022-12-24T02:34:43.243Z,10.93
2022-12-24T02:38:08.470Z,10.97
2022-12-24T02:41:33.763Z,10.99
2022-12-24T02:44:59.050Z,11.02
2022-12-24T02:48:24.276Z,11.03
2022-12-24T02:51:49.519Z,10.98
2022-12-24T02:55:14.769Z,10.95
2022-12-24T02:58:40.021Z,10.91
2022-12-24T03:02:05.320Z,10.84
2022-12-24T03:05:30.528Z,10.81
2022-12-24T03:08:55.757Z,10.77
2022-12-24T03:12:20.996Z,10.73
2022-12-24T03:15:46.295Z,10.69
2022-12-24T03:19:11.803Z,10.65
2022-12-24T03:22:37.019Z,10.58
2022-12-24T03:26:02.242Z,10.48
2022-12-24T03:29:27.508Z,10.42
2022-12-24T03:32:52.787Z,10.42
2022-12-24T03:36:18.015Z,10.38
2022-12-24T03:39:43.247Z,10.34
2022-12-24T03:43:08.506Z,10.31
2022-12-24T03:46:33.772Z,10.27
2022-12-24T03:49:59.013Z,10.22
2022-12-24T03:53:24.307Z,10.2
2022-12-24T03:56:49.521Z,10.16
2022-12-24T04:00:14.786Z,10.11
2022-12-24T04:03:40.049Z,10.07
2022-12-24T04:07:05.283Z,10.04
2022-12-24T04:10:30.541Z,10.01
2022-12-24T04:13:55.808Z,9.99
2022-12-24T04:17:21.046Z,9.95
2022-12-24T04:20:46.303Z,9.9
2022-12-24T04:24:11.551Z,9.85
2022-12-24T04:27:36.848Z,9.82
2022-12-24T04:31:02.056Z,9.84
2022-12-24T04:34:27.308Z,9.85
2022-12-24T04:37:52.565Z,9.86
2022-12-24T04:41:22.961Z,9.9
2022-12-24T04:44:43.094Z,9.97
2022-12-24T04:48:08.301Z,10
2022-12-24T04:51:33.542Z,10.07
2022-12-24T04:54:58.813Z,10.11
2022-12-24T04:58:24.062Z,10.17
2022-12-24T05:01:49.459Z,10.18
2022-12-24T05:05:14.564Z,10.22
2022-12-24T05:08:39.840Z,10.26
2022-12-24T05:12:05.090Z,10.27
2022-12-24T05:15:30.338Z,10.23
2022-12-24T05:18:55.602Z,10.25
2022-12-24T05:22:20.814Z,10.28
2022-12-24T05:25:46.074Z,10.32
2022-12-24T05:29:11.341Z,10.38
2022-12-24T05:32:36.580Z,10.4
2022-12-24T05:36:01.837Z,10.42
2022-12-24T05:39:27.070Z,10.4
2022-12-24T05:42:52.330Z,10.4
2022-12-24T05:46:17.604Z,10.42
2022-12-24T05:49:42.803Z,10.4
2022-12-24T05:53:08.080Z,10.35
2022-12-24T05:56:33.277Z,10.34
2022-12-24T05:59:58.559Z,10.36
2022-12-24T06:03:23.778Z,10.33
2022-12-24T06:06:49.022Z,10.31
2022-12-24T06:10:14.283Z,10.3
2022-12-24T06:13:39.499Z,10.25
2022-12-24T06:17:04.748Z,10.21
2022-12-24T06:20:30.108Z,10.19
2022-12-24T06:23:55.427Z,10.15
2022-12-24T06:27:20.678Z,10.09
2022-12-24T06:30:46.030Z,10
2022-12-24T06:34:11.181Z,9.92
2022-12-24T06:37:36.391Z,9.89
2022-12-24T06:41:01.619Z,9.86
2022-12-24T06:44:26.929Z,9.83
2022-12-24T06:47:52.154Z,9.79
2022-12-24T06:51:17.400Z,9.79
2022-12-24T06:54:42.790Z,9.8
2022-12-24T06:58:08.128Z,9.82
2022-12-24T07:01:33.548Z,9.85
2022-12-24T07:04:58.650Z,9.89
2022-12-24T07:08:23.946Z,9.96
2022-12-24T07:11:49.208Z,9.96
2022-12-24T07:15:14.453Z,9.95
2022-12-24T07:18:39.755Z,10
2022-12-24T07:22:07.785Z,10.03
2022-12-24T07:25:30.216Z,10.08
2022-12-24T07:28:55.474Z,10.11
2022-12-24T07:32:20.757Z,10.16
2022-12-24T07:35:48.469Z,10.21
2022-12-24T07:39:11.259Z,10.24
2022-12-24T07:42:36.509Z,10.33
2022-12-24T07:46:01.763Z,10.42
2022-12-24T07:49:27.005Z,10.48
2022-12-24T07:52:52.279Z,10.51
2022-12-24T07:56:17.510Z,10.6
2022-12-24T07:59:42.773Z,10.59
2022-12-24T08:03:08.458Z,10.58
2022-12-24T08:06:33.499Z,10.56
2022-12-24T08:09:58.765Z,10.56
2022-12-24T08:13:23.984Z,10.57
2022-12-24T08:16:49.336Z,10.56
2022-12-24T08:20:14.524Z,10.58
2022-12-24T08:23:39.754Z,10.61
2022-12-24T08:27:05.035Z,10.61
2022-12-24T08:30:30.243Z,10.63
2022-12-24T08:33:55.518Z,10.64
2022-12-24T08:37:20.751Z,10.65
2022-12-24T08:40:45.982Z,10.71
2022-12-24T08:44:11.231Z,10.75
2022-12-24T08:47:36.485Z,10.75
2022-12-24T08:51:01.714Z,10.75
2022-12-24T08:54:26.958Z,10.77
2022-12-24T08:57:52.224Z,10.7
2022-12-24T09:01:17.651Z,10.67
2022-12-24T09:04:42.711Z,10.69
2022-12-24T09:08:07.955Z,10.74
2022-12-24T09:11:33.177Z,10.84
2022-12-24T09:15:03.375Z,10.9
2022-12-24T09:18:23.663Z,10.93
2022-12-24T09:21:48.884Z,10.95
2022-12-24T09:25:14.131Z,10.98
2022-12-24T09:28:39.423Z,10.99
2022-12-24T09:32:04.732Z,11.02
2022-12-24T09:35:30.333Z,11.06
2022-12-24T09:38:55.571Z,11.16
2022-12-24T09:42:20.830Z,11.27
2022-12-24T09:45:46.134Z,11.3
2022-12-24T09:49:11.364Z,11.3
2022-12-24T09:52:36.664Z,11.28
2022-12-24T09:56:01.919Z,11.32
2022-12-24T09:59:34.029Z,11.38
2022-12-24T10:02:59.417Z,11.4
2022-12-24T10:06:28.908Z,11.45
2022-12-24T10:09:49.935Z,11.55
2022-12-24T10:13:15.233Z,11.61
2022-12-24T10:16:40.600Z,11.61
2022-12-24T10:20:05.787Z,11.61
2022-12-24T10:23:31.054Z,11.64
2022-12-24T10:26:56.316Z,11.65
2022-12-24T10:30:21.590Z,11.68
2022-12-24T10:33:46.767Z,11.73
2022-12-24T10:37:12.298Z,11.78
2022-12-24T10:40:37.562Z,11.79
2022-12-24T10:44:02.852Z,11.79
2022-12-24T10:47:28.047Z,11.73
2022-12-24T10:50:53.288Z,11.7
2022-12-24T10:54:26.057Z,11.65
2022-12-24T10:57:43.803Z,11.61
2022-12-24T11:01:09.162Z,11.56
2022-12-24T11:04:34.291Z,11.55
2022-12-24T11:07:59.543Z,11.53
2022-12-24T11:11:24.763Z,11.54
2022-12-24T11:14:50.011Z,11.51
2022-12-24T11:18:15.281Z,11.53
2022-12-24T11:21:40.481Z,11.55
2022-12-24T11:25:05.763Z,11.63
2022-12-24T11:28:30.989Z,11.69
2022-12-24T11:31:56.239Z,11.7
2022-12-24T11:35:21.531Z,11.78
2022-12-24T11:38:46.779Z,11.85
2022-12-24T11:42:12.056Z,11.88
2022-12-24T11:45:37.351Z,11.85
2022-12-24T11:49:07.565Z,11.84
2022-12-24T11:52:27.926Z,11.84
2022-12-24T11:55:53.129Z,11.92
2022-12-24T11:59:18.410Z,11.97
2022-12-24T12:02:43.745Z,11.99
2022-12-24T12:06:09.118Z,11.97
2022-12-24T12:09:34.498Z,11.94
2022-12-24T12:12:59.946Z,11.9
2022-12-24T12:16:26.224Z,11.93
2022-12-24T12:19:51.392Z,11.93
2022-12-24T12:23:16.648Z,11.91
2022-12-24T12:26:42.031Z,11.87
2022-12-24T12:30:08.312Z,11.77
2022-12-24T12:33:33.679Z,11.68
2022-12-24T12:36:59.025Z,11.58
2022-12-24T12:40:24.365Z,11.53
2022-12-24T12:43:49.775Z,11.5
2022-12-24T12:47:15.066Z,11.52
2022-12-24T12:50:40.462Z,11.5
2022-12-24T12:54:05.880Z,11.47
2022-12-24T12:57:31.193Z,11.46
2022-12-24T13:00:56.604Z,11.47
2022-12-24T13:04:21.834Z,11.46
2022-12-24T13:07:47.178Z,11.47
2022-12-24T13:11:12.514Z,11.5
2022-12-24T13:14:37.919Z,11.49
2022-12-24T13:18:03.332Z,11.45
2022-12-24T13:21:28.706Z,11.45
2022-12-24T13:24:54.020Z,11.47
2022-12-24T13:28:19.325Z,11.47
2022-12-24T13:31:44.708Z,11.47
2022-12-24T13:35:09.935Z,11.46
2022-12-24T13:38:35.250Z,11.41
2022-12-24T13:42:00.574Z,11.45
2022-12-24T13:45:25.940Z,11.5
2022-12-24T13:48:51.315Z,11.56
2022-12-24T13:52:16.646Z,11.58
2022-12-24T13:55:41.914Z,11.59
2022-12-24T13:59:07.275Z,11.6
2022-12-24T14:02:32.815Z,11.64
2022-12-24T14:05:58.373Z,11.64
2022-12-24T14:09:23.767Z,11.63
2022-12-24T14:12:49.100Z,11.59
2022-12-24T14:16:14.472Z,11.56
2022-12-24T14:19:39.651Z,11.54
2022-12-24T14:23:04.936Z,11.54
2022-12-24T14:26:30.264Z,11.57
2022-12-24T14:29:55.488Z,11.58
2022-12-24T15:04:50.803Z,9.16
2022-12-24T15:08:16.042Z,10.15
2022-12-24T15:11:41.284Z,10.4
2022-12-24T15:15:06.528Z,10.63
2022-12-24T15:18:31.792Z,10.81
2022-12-24T15:21:57.088Z,10.93
2022-12-24T15:25:22.355Z,11.03
2022-12-24T15:28:47.639Z,11.11
2022-12-24T15:32:12.927Z,11.22
2022-12-24T15:35:38.322Z,11.28
2022-12-24T15:39:03.674Z,11.3
2022-12-24T15:42:29.032Z,11.29
2022-12-24T15:45:54.567Z,11.27
2022-12-24T15:49:19.961Z,11.31
2022-12-24T15:52:45.283Z,11.3
2022-12-24T15:56:10.747Z,11.28
2022-12-24T15:59:36.105Z,11.27
2022-12-24T16:03:01.526Z,11.23
2022-12-24T16:06:26.658Z,11.19
2022-12-24T16:09:51.921Z,11.11
2022-12-24T16:13:17.358Z,11.09
2022-12-24T16:16:42.815Z,11.08
2022-12-24T16:20:08.094Z,11.1
2022-12-24T16:23:33.352Z,11.1
2022-12-24T16:26:58.616Z,11.1
2022-12-24T16:30:23.889Z,11.05
2022-12-24T16:33:49.132Z,10.97
2022-12-24T16:37:14.375Z,10.93
2022-12-24T16:40:39.653Z,10.88
2022-12-24T16:44:04.927Z,10.87
2022-12-24T16:47:30.347Z,10.9
2022-12-24T16:50:55.655Z,10.9
2022-12-24T16:54:20.997Z,10.88
2022-12-24T16:57:46.458Z,10.9
2022-12-24T17:01:11.867Z,10.91
2022-12-24T17:04:37.007Z,10.92
2022-12-24T17:08:02.326Z,10.91
2022-12-24T17:11:27.603Z,10.94
2022-12-24T17:14:52.924Z,10.97
2022-12-24T17:18:18.208Z,10.97
2022-12-24T17:21:43.572Z,10.93
2022-12-24T17:25:08.814Z,10.9
2022-12-24T17:28:34.205Z,10.88
2022-12-24T17:31:59.523Z,10.86
2022-12-24T17:35:24.868Z,10.85
2022-12-24T17:38:50.125Z,10.86
2022-12-24T17:42:15.369Z,10.89
2022-12-24T17:45:40.658Z,10.89
2022-12-24T17:49:06.081Z,10.86
2022-12-24T17:52:31.579Z,10.86
2022-12-24T17:55:56.918Z,10.82
2022-12-24T17:59:22.176Z,10.81
2022-12-24T18:02:47.533Z,10.78
2022-12-24T18:06:12.699Z,10.77
2022-12-24T18:09:38.704Z,10.77
2022-12-24T18:13:04.029Z,10.7
2022-12-24T18:16:29.359Z,10.62
2022-12-24T18:19:55.231Z,10.6
2022-12-24T18:23:20.538Z,10.6
2022-12-24T18:26:45.837Z,10.56
2022-12-24T18:30:11.109Z,10.51
2022-12-24T18:33:36.386Z,10.51
2022-12-24T18:37:01.633Z,10.51
2022-12-24T18:40:27.026Z,10.5
2022-12-24T18:43:52.296Z,10.48
2022-12-24T18:47:17.744Z,10.45
2022-12-24T18:50:42.816Z,10.43
2022-12-24T18:54:08.719Z,10.4
2022-12-24T18:57:34.002Z,10.36
2022-12-24T19:00:59.325Z,10.29
2022-12-24T19:04:24.591Z,10.18
2022-12-24T19:07:49.857Z,10.1
2022-12-24T19:11:15.151Z,10.06
2022-12-24T19:14:40.401Z,10.04
2022-12-24T19:18:05.662Z,10.04
2022-12-24T19:21:31.418Z,10.04
2022-12-24T19:24:56.652Z,10.02
2022-12-24T19:28:25.813Z,9.99
2022-12-24T19:31:47.456Z,10.02
2022-12-24T19:35:12.505Z,10.08
2022-12-24T19:38:37.835Z,10.14
2022-12-24T19:42:03.097Z,10.16
2022-12-24T19:45:28.468Z,10.19
2022-12-24T19:48:53.702Z,10.29
2022-12-24T19:52:18.964Z,10.37
2022-12-24T19:55:44.260Z,10.45
2022-12-24T19:59:09.525Z,10.5
2022-12-24T20:02:35.011Z,10.58
2022-12-24T20:06:00.110Z,10.63
2022-12-24T20:09:25.410Z,10.64
2022-12-24T20:12:50.706Z,10.63
2022-12-24T20:16:15.955Z,10.59
2022-12-24T20:19:41.174Z,10.6
2022-12-24T20:23:06.454Z,10.6
2022-12-24T20:26:31.738Z,10.59
2022-12-24T20:29:57.066Z,10.6
2022-12-24T20:33:22.339Z,10.63
2022-12-24T20:36:47.605Z,10.64
2022-12-24T20:40:12.865Z,10.66
2022-12-24T20:43:43.120Z,10.66
2022-12-24T20:47:03.444Z,10.67
2022-12-24T20:50:28.645Z,10.67
2022-12-24T20:53:53.918Z,10.64
2022-12-24T20:57:24.802Z,10.64
2022-12-24T21:00:44.435Z,10.63
2022-12-24T21:04:09.721Z,10.63
2022-12-24T21:07:35.007Z,10.63
2022-12-24T21:11:00.289Z,10.59
2022-12-24T21:14:25.561Z,10.56
2022-12-24T21:17:50.807Z,10.54
2022-12-24T21:21:16.113Z,10.56
2022-12-24T21:24:41.372Z,10.54
2022-12-24T21:28:06.678Z,10.52
2022-12-24T21:31:32.032Z,10.49
2022-12-24T21:34:57.205Z,10.45
2022-12-24T21:38:22.500Z,10.43
2022-12-24T21:41:47.746Z,10.42
2022-12-24T21:45:13.026Z,10.43
2022-12-24T21:48:38.266Z,10.45
2022-12-24T21:52:03.515Z,10.46
2022-12-24T21:55:28.797Z,10.45
2022-12-24T21:58:54.028Z,10.47
2022-12-24T22:02:19.479Z,10.44
2022-12-24T22:05:44.572Z,10.43
2022-12-24T22:09:09.825Z,10.43
2022-12-24T22:12:35.930Z,10.43
2022-12-24T22:16:01.159Z,10.44
2022-12-24T22:19:26.449Z,10.45
2022-12-24T22:22:51.709Z,10.45
2022-12-24T22:26:17.029Z,10.46
2022-12-24T22:29:42.279Z,10.53
2022-12-24T22:33:08.402Z,10.59
2022-12-24T22:36:33.655Z,10.59
2022-12-24T22:39:58.914Z,10.56
2022-12-24T22:43:24.208Z,10.51
2022-12-24T22:46:49.497Z,10.51
2022-12-24T22:50:14.760Z,10.47
2022-12-24T22:53:39.982Z,10.48
2022-12-24T22:57:05.264Z,10.51
2022-12-24T23:00:30.537Z,10.57
2022-12-24T23:03:55.860Z,10.6
2022-12-24T23:07:21.068Z,10.57
2022-12-24T23:10:46.309Z,10.56
2022-12-24T23:14:11.557Z,10.6
2022-12-24T23:17:36.821Z,10.6
2022-12-24T23:21:02.138Z,10.57
2022-12-24T23:24:27.340Z,10.53
2022-12-24T23:27:52.605Z,10.54
2022-12-24T23:31:17.931Z,10.57
2022-12-24T23:34:43.162Z,10.6
2022-12-24T23:38:08.415Z,10.67
2022-12-24T23:41:33.639Z,10.69
2022-12-24T23:44:58.918Z,10.73
2022-12-24T23:48:24.227Z,10.77
2022-12-24T23:51:49.428Z,10.8
2022-12-24T23:55:14.700Z,10.8
2022-12-24T23:58:39.939Z,10.74
